sensor_id;sensor_type;location;lat;lon;timestamp;P1;durP1;ratioP1;P2;durP2;ratioP2
27863;SDS011;15980;51.092;13.916;2022-08-19T00:02:37;18.90;;;12.77;;
27863;SDS011;15980;51.092;13.916;2022-08-19T00:07:41;16.23;;;12.98;;
27863;SDS011;15980;51.092;13.916;2022-08-19T00:12:46;19.80;;;13.23;;
27863;SDS011;15980;51.092;13.916;2022-08-19T00:17:49;17.38;;;13.10;;
27863;SDS011;15980;51.092;13.916;2022-08-19T00:22:52;20.33;;;12.48;;
27863;SDS011;15980;51.092;13.916;2022-08-19T00:27:58;16.10;;;12.27;;
27863;SDS011;15980;51.092;13.916;2022-08-19T00:33:01;17.27;;;13.10;;
27863;SDS011;15980;51.092;13.916;2022-08-19T00:38:04;15.85;;;12.40;;
27863;SDS011;15980;51.092;13.916;2022-08-19T00:43:10;18.95;;;13.82;;
27863;SDS011;15980;51.092;13.916;2022-08-19T00:48:14;19.10;;;13.20;;
27863;SDS011;15980;51.092;13.916;2022-08-19T00:53:19;18.65;;;14.05;;
27863;SDS011;15980;51.092;13.916;2022-08-19T00:58:27;22.80;;;14.73;;
27863;SDS011;15980;51.092;13.916;2022-08-19T01:03:34;20.88;;;15.23;;
27863;SDS011;15980;51.092;13.916;2022-08-19T01:08:37;17.73;;;14.18;;
27863;SDS011;15980;51.092;13.916;2022-08-19T01:13:41;20.48;;;15.13;;
27863;SDS011;15980;51.092;13.916;2022-08-19T01:18:44;23.88;;;17.05;;
27863;SDS011;15980;51.092;13.916;2022-08-19T01:23:49;24.10;;;17.85;;
27863;SDS011;15980;51.092;13.916;2022-08-19T01:28:54;22.13;;;16.88;;
27863;SDS011;15980;51.092;13.916;2022-08-19T01:33:58;22.52;;;16.48;;
27863;SDS011;15980;51.092;13.916;2022-08-19T01:39:05;24.55;;;17.58;;
27863;SDS011;15980;51.092;13.916;2022-08-19T01:44:11;24.25;;;17.23;;
27863;SDS011;15980;51.092;13.916;2022-08-19T01:49:14;24.15;;;17.30;;
27863;SDS011;15980;51.092;13.916;2022-08-19T01:54:21;25.35;;;17.73;;
27863;SDS011;15980;51.092;13.916;2022-08-19T01:59:25;27.48;;;16.92;;
27863;SDS011;15980;51.092;13.916;2022-08-19T02:04:28;21.27;;;17.08;;
27863;SDS011;15980;51.092;13.916;2022-08-19T02:09:33;25.75;;;17.40;;
27863;SDS011;15980;51.092;13.916;2022-08-19T02:14:36;23.48;;;17.67;;
27863;SDS011;15980;51.092;13.916;2022-08-19T02:19:39;28.80;;;18.55;;
27863;SDS011;15980;51.092;13.916;2022-08-19T02:24:43;25.00;;;17.50;;
27863;SDS011;15980;51.092;13.916;2022-08-19T02:29:47;23.77;;;18.38;;
27863;SDS011;15980;51.092;13.916;2022-08-19T02:34:52;25.90;;;20.02;;
27863;SDS011;15980;51.092;13.916;2022-08-19T02:39:57;28.23;;;21.25;;
27863;SDS011;15980;51.092;13.916;2022-08-19T02:45:00;25.75;;;18.80;;
27863;SDS011;15980;51.092;13.916;2022-08-19T02:50:03;24.88;;;19.20;;
27863;SDS011;15980;51.092;13.916;2022-08-19T02:55:09;30.98;;;21.85;;
27863;SDS011;15980;51.092;13.916;2022-08-19T03:00:12;27.35;;;19.48;;
27863;SDS011;15980;51.092;13.916;2022-08-19T03:05:16;24.10;;;18.45;;
27863;SDS011;15980;51.092;13.916;2022-08-19T03:10:20;29.90;;;20.60;;
27863;SDS011;15980;51.092;13.916;2022-08-19T03:15:24;29.25;;;20.83;;
27863;SDS011;15980;51.092;13.916;2022-08-19T03:20:27;33.13;;;22.08;;
27863;SDS011;15980;51.092;13.916;2022-08-19T03:25:31;28.05;;;21.15;;
27863;SDS011;15980;51.092;13.916;2022-08-19T03:30:39;27.55;;;20.75;;
27863;SDS011;15980;51.092;13.916;2022-08-19T03:35:43;25.05;;;19.33;;
27863;SDS011;15980;51.092;13.916;2022-08-19T03:40:47;30.92;;;21.00;;
27863;SDS011;15980;51.092;13.916;2022-08-19T03:45:59;25.42;;;18.75;;
27863;SDS011;15980;51.092;13.916;2022-08-19T03:51:03;22.70;;;17.02;;
27863;SDS011;15980;51.092;13.916;2022-08-19T03:56:09;25.65;;;19.45;;
27863;SDS011;15980;51.092;13.916;2022-08-19T04:01:16;29.90;;;20.92;;
27863;SDS011;15980;51.092;13.916;2022-08-19T04:06:22;30.55;;;21.70;;
27863;SDS011;15980;51.092;13.916;2022-08-19T04:11:29;31.55;;;21.30;;
27863;SDS011;15980;51.092;13.916;2022-08-19T04:16:33;36.42;;;24.33;;
27863;SDS011;15980;51.092;13.916;2022-08-19T04:21:36;31.50;;;23.60;;
27863;SDS011;15980;51.092;13.916;2022-08-19T04:26:41;30.15;;;23.02;;
27863;SDS011;15980;51.092;13.916;2022-08-19T04:31:44;35.65;;;25.60;;
27863;SDS011;15980;51.092;13.916;2022-08-19T04:36:48;37.47;;;24.85;;
27863;SDS011;15980;51.092;13.916;2022-08-19T04:41:53;35.97;;;24.67;;
27863;SDS011;15980;51.092;13.916;2022-08-19T04:47:14;38.33;;;25.33;;
27863;SDS011;15980;51.092;13.916;2022-08-19T04:52:17;35.72;;;25.92;;
27863;SDS011;15980;51.092;13.916;2022-08-19T04:57:21;38.45;;;27.38;;
27863;SDS011;15980;51.092;13.916;2022-08-19T05:02:24;36.88;;;25.95;;
27863;SDS011;15980;51.092;13.916;2022-08-19T05:07:27;38.80;;;27.88;;
27863;SDS011;15980;51.092;13.916;2022-08-19T05:12:33;42.00;;;27.70;;
27863;SDS011;15980;51.092;13.916;2022-08-19T05:17:36;31.77;;;24.23;;
27863;SDS011;15980;51.092;13.916;2022-08-19T05:22:59;32.22;;;23.25;;
27863;SDS011;15980;51.092;13.916;2022-08-19T05:28:04;31.75;;;23.52;;
27863;SDS011;15980;51.092;13.916;2022-08-19T05:33:07;32.85;;;23.42;;
27863;SDS011;15980;51.092;13.916;2022-08-19T05:38:11;30.65;;;22.55;;
27863;SDS011;15980;51.092;13.916;2022-08-19T05:43:15;31.35;;;23.13;;
27863;SDS011;15980;51.092;13.916;2022-08-19T05:48:18;30.60;;;22.00;;
27863;SDS011;15980;51.092;13.916;2022-08-19T05:53:21;33.33;;;21.65;;
27863;SDS011;15980;51.092;13.916;2022-08-19T05:58:26;38.17;;;25.40;;
27863;SDS011;15980;51.092;13.916;2022-08-19T06:03:29;35.58;;;24.02;;
27863;SDS011;15980;51.092;13.916;2022-08-19T06:08:32;41.92;;;26.90;;
27863;SDS011;15980;51.092;13.916;2022-08-19T06:13:36;38.47;;;25.38;;
27863;SDS011;15980;51.092;13.916;2022-08-19T06:18:39;30.77;;;21.70;;
27863;SDS011;15980;51.092;13.916;2022-08-19T06:23:44;36.90;;;26.58;;
27863;SDS011;15980;51.092;13.916;2022-08-19T06:28:50;38.38;;;24.98;;
27863;SDS011;15980;51.092;13.916;2022-08-19T06:33:53;37.20;;;26.13;;
27863;SDS011;15980;51.092;13.916;2022-08-19T06:38:56;40.72;;;26.58;;
27863;SDS011;15980;51.092;13.916;2022-08-19T06:44:01;33.22;;;22.75;;
27863;SDS011;15980;51.092;13.916;2022-08-19T06:49:05;32.20;;;22.48;;
27863;SDS011;15980;51.092;13.916;2022-08-19T06:54:11;33.97;;;22.05;;
27863;SDS011;15980;51.092;13.916;2022-08-19T06:59:16;28.75;;;20.35;;
27863;SDS011;15980;51.092;13.916;2022-08-19T07:04:21;31.30;;;20.75;;
27863;SDS011;15980;51.092;13.916;2022-08-19T07:09:25;32.55;;;19.75;;
27863;SDS011;15980;51.092;13.916;2022-08-19T07:14:30;27.92;;;19.38;;
27863;SDS011;15980;51.092;13.916;2022-08-19T07:19:33;28.50;;;20.17;;
27863;SDS011;15980;51.092;13.916;2022-08-19T07:24:37;28.35;;;18.23;;
27863;SDS011;15980;51.092;13.916;2022-08-19T07:29:41;31.35;;;21.38;;
27863;SDS011;15980;51.092;13.916;2022-08-19T07:34:44;31.83;;;20.55;;
27863;SDS011;15980;51.092;13.916;2022-08-19T07:39:47;33.05;;;22.58;;
27863;SDS011;15980;51.092;13.916;2022-08-19T07:44:52;36.13;;;22.80;;
27863;SDS011;15980;51.092;13.916;2022-08-19T07:49:54;33.85;;;23.48;;
27863;SDS011;15980;51.092;13.916;2022-08-19T07:54:58;35.58;;;23.27;;
27863;SDS011;15980;51.092;13.916;2022-08-19T08:00:06;34.38;;;22.77;;
27863;SDS011;15980;51.092;13.916;2022-08-19T08:05:10;34.25;;;23.60;;
27863;SDS011;15980;51.092;13.916;2022-08-19T08:10:30;33.07;;;21.77;;
27863;SDS011;15980;51.092;13.916;2022-08-19T08:15:35;31.65;;;21.25;;
27863;SDS011;15980;51.092;13.916;2022-08-19T08:20:42;29.38;;;20.83;;
27863;SDS011;15980;51.092;13.916;2022-08-19T08:25:45;31.30;;;21.38;;
27863;SDS011;15980;51.092;13.916;2022-08-19T08:30:50;29.17;;;20.48;;
27863;SDS011;15980;51.092;13.916;2022-08-19T08:35:53;26.52;;;18.63;;
27863;SDS011;15980;51.092;13.916;2022-08-19T08:40:57;28.08;;;18.58;;
27863;SDS011;15980;51.092;13.916;2022-08-19T08:46:11;27.30;;;18.60;;
27863;SDS011;15980;51.092;13.916;2022-08-19T08:51:20;28.30;;;20.65;;
27863;SDS011;15980;51.092;13.916;2022-08-19T08:56:27;32.03;;;21.00;;
27863;SDS011;15980;51.092;13.916;2022-08-19T09:01:36;29.67;;;20.55;;
27863;SDS011;15980;51.092;13.916;2022-08-19T09:06:40;27.52;;;19.65;;
27863;SDS011;15980;51.092;13.916;2022-08-19T09:11:52;28.95;;;19.92;;
27863;SDS011;15980;51.092;13.916;2022-08-19T09:17:03;26.58;;;18.17;;
27863;SDS011;15980;51.092;13.916;2022-08-19T09:22:09;27.05;;;19.08;;
27863;SDS011;15980;51.092;13.916;2022-08-19T09:27:12;23.30;;;17.50;;
27863;SDS011;15980;51.092;13.916;2022-08-19T09:32:16;22.55;;;17.30;;
27863;SDS011;15980;51.092;13.916;2022-08-19T09:37:19;21.88;;;17.25;;
27863;SDS011;15980;51.092;13.916;2022-08-19T09:42:22;23.13;;;16.55;;
27863;SDS011;15980;51.092;13.916;2022-08-19T09:47:26;22.23;;;16.35;;
27863;SDS011;15980;51.092;13.916;2022-08-19T09:52:29;22.65;;;16.52;;
27863;SDS011;15980;51.092;13.916;2022-08-19T09:57:32;19.75;;;14.55;;
27863;SDS011;15980;51.092;13.916;2022-08-19T10:02:37;19.50;;;13.85;;
27863;SDS011;15980;51.092;13.916;2022-08-19T10:07:40;18.02;;;13.70;;
27863;SDS011;15980;51.092;13.916;2022-08-19T10:12:43;18.27;;;11.63;;
27863;SDS011;15980;51.092;13.916;2022-08-19T10:17:49;13.65;;;11.48;;
27863;SDS011;15980;51.092;13.916;2022-08-19T10:22:52;11.63;;;9.60;;
27863;SDS011;15980;51.092;13.916;2022-08-19T10:27:55;12.98;;;10.75;;
27863;SDS011;15980;51.092;13.916;2022-08-19T10:33:00;15.52;;;11.20;;
27863;SDS011;15980;51.092;13.916;2022-08-19T10:38:04;14.90;;;10.63;;
27863;SDS011;15980;51.092;13.916;2022-08-19T10:43:07;14.20;;;11.27;;
27863;SDS011;15980;51.092;13.916;2022-08-19T10:48:11;12.95;;;10.10;;
27863;SDS011;15980;51.092;13.916;2022-08-19T10:53:14;14.27;;;9.73;;
27863;SDS011;15980;51.092;13.916;2022-08-19T10:58:18;12.55;;;10.40;;
27863;SDS011;15980;51.092;13.916;2022-08-19T11:03:28;11.05;;;9.52;;
27863;SDS011;15980;51.092;13.916;2022-08-19T11:08:32;11.40;;;8.88;;
27863;SDS011;15980;51.092;13.916;2022-08-19T11:13:37;12.75;;;9.70;;
27863;SDS011;15980;51.092;13.916;2022-08-19T11:18:46;12.95;;;9.40;;
27863;SDS011;15980;51.092;13.916;2022-08-19T11:23:50;10.10;;;8.70;;
27863;SDS011;15980;51.092;13.916;2022-08-19T11:28:55;13.38;;;9.80;;
27863;SDS011;15980;51.092;13.916;2022-08-19T11:34:01;10.60;;;9.48;;
27863;SDS011;15980;51.092;13.916;2022-08-19T11:39:05;10.45;;;9.15;;
27863;SDS011;15980;51.092;13.916;2022-08-19T11:44:09;15.27;;;10.45;;
27863;SDS011;15980;51.092;13.916;2022-08-19T11:49:17;14.02;;;10.63;;
27863;SDS011;15980;51.092;13.916;2022-08-19T11:54:22;15.25;;;11.05;;
27863;SDS011;15980;51.092;13.916;2022-08-19T11:59:25;12.98;;;11.30;;
27863;SDS011;15980;51.092;13.916;2022-08-19T12:04:29;14.68;;;11.55;;
27863;SDS011;15980;51.092;13.916;2022-08-19T12:09:32;15.77;;;11.82;;
27863;SDS011;15980;51.092;13.916;2022-08-19T12:14:36;15.40;;;10.90;;
27863;SDS011;15980;51.092;13.916;2022-08-19T12:19:41;16.65;;;13.02;;
27863;SDS011;15980;51.092;13.916;2022-08-19T12:24:44;19.27;;;13.45;;
27863;SDS011;15980;51.092;13.916;2022-08-19T12:29:47;18.08;;;13.43;;
27863;SDS011;15980;51.092;13.916;2022-08-19T12:34:51;17.50;;;13.20;;
27863;SDS011;15980;51.092;13.916;2022-08-19T12:39:54;19.13;;;14.15;;
27863;SDS011;15980;51.092;13.916;2022-08-19T12:44:57;20.20;;;15.10;;
27863;SDS011;15980;51.092;13.916;2022-08-19T12:50:01;17.65;;;13.60;;
27863;SDS011;15980;51.092;13.916;2022-08-19T12:55:07;18.65;;;14.35;;
27863;SDS011;15980;51.092;13.916;2022-08-19T13:00:11;28.45;;;17.58;;
27863;SDS011;15980;51.092;13.916;2022-08-19T13:05:19;26.77;;;18.73;;
27863;SDS011;15980;51.092;13.916;2022-08-19T13:10:25;28.75;;;19.48;;
27863;SDS011;15980;51.092;13.916;2022-08-19T13:15:29;26.75;;;16.77;;
27863;SDS011;15980;51.092;13.916;2022-08-19T13:20:37;21.05;;;15.68;;
27863;SDS011;15980;51.092;13.916;2022-08-19T13:25:41;26.15;;;17.73;;
27863;SDS011;15980;51.092;13.916;2022-08-19T13:30:46;31.95;;;19.77;;
27863;SDS011;15980;51.092;13.916;2022-08-19T13:36:08;23.08;;;16.10;;
27863;SDS011;15980;51.092;13.916;2022-08-19T13:41:11;30.65;;;18.65;;
27863;SDS011;15980;51.092;13.916;2022-08-19T13:46:15;25.35;;;18.08;;
27863;SDS011;15980;51.092;13.916;2022-08-19T13:51:19;29.40;;;19.23;;
27863;SDS011;15980;51.092;13.916;2022-08-19T13:56:22;30.20;;;18.63;;
27863;SDS011;15980;51.092;13.916;2022-08-19T14:01:26;30.42;;;20.33;;
27863;SDS011;15980;51.092;13.916;2022-08-19T14:06:30;29.00;;;18.80;;
27863;SDS011;15980;51.092;13.916;2022-08-19T14:11:33;27.83;;;19.27;;
27863;SDS011;15980;51.092;13.916;2022-08-19T14:16:36;27.30;;;17.58;;
27863;SDS011;15980;51.092;13.916;2022-08-19T14:21:40;29.48;;;19.30;;
27863;SDS011;15980;51.092;13.916;2022-08-19T14:26:43;23.98;;;15.65;;
27863;SDS011;15980;51.092;13.916;2022-08-19T14:31:46;26.58;;;18.40;;
27863;SDS011;15980;51.092;13.916;2022-08-19T14:36:52;29.20;;;20.20;;
27863;SDS011;15980;51.092;13.916;2022-08-19T14:41:55;41.30;;;25.67;;
27863;SDS011;15980;51.092;13.916;2022-08-19T14:46:59;34.88;;;23.15;;
27863;SDS011;15980;51.092;13.916;2022-08-19T14:52:04;37.80;;;24.30;;
27863;SDS011;15980;51.092;13.916;2022-08-19T14:57:10;36.08;;;22.70;;
27863;SDS011;15980;51.092;13.916;2022-08-19T15:02:14;41.53;;;26.20;;
27863;SDS011;15980;51.092;13.916;2022-08-19T15:07:18;43.22;;;24.98;;
27863;SDS011;15980;51.092;13.916;2022-08-19T15:12:21;40.47;;;26.38;;
27863;SDS011;15980;51.092;13.916;2022-08-19T15:17:25;43.03;;;25.15;;
27863;SDS011;15980;51.092;13.916;2022-08-19T15:22:29;38.65;;;24.88;;
27863;SDS011;15980;51.092;13.916;2022-08-19T15:27:33;38.00;;;25.05;;
27863;SDS011;15980;51.092;13.916;2022-08-19T15:32:37;43.58;;;26.80;;
27863;SDS011;15980;51.092;13.916;2022-08-19T15:37:42;39.17;;;25.17;;
27863;SDS011;15980;51.092;13.916;2022-08-19T15:42:46;36.33;;;22.98;;
27863;SDS011;15980;51.092;13.916;2022-08-19T15:47:50;40.47;;;26.05;;
27863;SDS011;15980;51.092;13.916;2022-08-19T15:52:57;38.90;;;24.88;;
27863;SDS011;15980;51.092;13.916;2022-08-19T15:58:02;36.30;;;24.30;;
27863;SDS011;15980;51.092;13.916;2022-08-19T16:03:24;39.53;;;24.45;;
27863;SDS011;15980;51.092;13.916;2022-08-19T16:08:46;35.22;;;23.20;;
27863;SDS011;15980;51.092;13.916;2022-08-19T16:13:50;41.10;;;25.88;;
27863;SDS011;15980;51.092;13.916;2022-08-19T16:18:55;35.72;;;23.30;;
27863;SDS011;15980;51.092;13.916;2022-08-19T16:24:00;45.80;;;27.48;;
27863;SDS011;15980;51.092;13.916;2022-08-19T16:29:05;29.60;;;20.88;;
27863;SDS011;15980;51.092;13.916;2022-08-19T16:34:09;37.47;;;24.38;;
27863;SDS011;15980;51.092;13.916;2022-08-19T16:39:14;36.53;;;23.77;;
27863;SDS011;15980;51.092;13.916;2022-08-19T16:44:18;39.00;;;24.02;;
27863;SDS011;15980;51.092;13.916;2022-08-19T16:49:21;50.65;;;29.73;;
27863;SDS011;15980;51.092;13.916;2022-08-19T16:54:27;42.35;;;26.77;;
27863;SDS011;15980;51.092;13.916;2022-08-19T16:59:32;42.47;;;26.90;;
27863;SDS011;15980;51.092;13.916;2022-08-19T17:04:35;45.10;;;26.98;;
27863;SDS011;15980;51.092;13.916;2022-08-19T17:09:40;35.50;;;22.45;;
27863;SDS011;15980;51.092;13.916;2022-08-19T17:14:43;42.85;;;25.88;;
27863;SDS011;15980;51.092;13.916;2022-08-19T17:19:46;35.95;;;23.60;;
27863;SDS011;15980;51.092;13.916;2022-08-19T17:24:50;37.10;;;23.90;;
27863;SDS011;15980;51.092;13.916;2022-08-19T17:29:54;39.88;;;25.42;;
27863;SDS011;15980;51.092;13.916;2022-08-19T17:35:00;36.20;;;23.63;;
27863;SDS011;15980;51.092;13.916;2022-08-19T17:40:07;41.10;;;26.20;;
27863;SDS011;15980;51.092;13.916;2022-08-19T17:45:11;36.10;;;22.88;;
27863;SDS011;15980;51.092;13.916;2022-08-19T17:50:14;33.67;;;23.33;;
27863;SDS011;15980;51.092;13.916;2022-08-19T17:55:19;41.55;;;25.15;;
27863;SDS011;15980;51.092;13.916;2022-08-19T18:00:22;33.22;;;23.05;;
27863;SDS011;15980;51.092;13.916;2022-08-19T18:05:26;31.88;;;21.77;;
27863;SDS011;15980;51.092;13.916;2022-08-19T18:10:31;32.72;;;21.98;;
27863;SDS011;15980;51.092;13.916;2022-08-19T18:15:34;39.40;;;25.15;;
27863;SDS011;15980;51.092;13.916;2022-08-19T18:20:37;29.83;;;20.17;;
27863;SDS011;15980;51.092;13.916;2022-08-19T18:25:41;31.98;;;20.58;;
27863;SDS011;15980;51.092;13.916;2022-08-19T18:30:45;31.10;;;21.75;;
27863;SDS011;15980;51.092;13.916;2022-08-19T18:35:48;32.70;;;21.17;;
27863;SDS011;15980;51.092;13.916;2022-08-19T18:40:54;33.45;;;22.13;;
27863;SDS011;15980;51.092;13.916;2022-08-19T18:46:14;31.50;;;21.70;;
27863;SDS011;15980;51.092;13.916;2022-08-19T18:51:35;30.40;;;19.85;;
27863;SDS011;15980;51.092;13.916;2022-08-19T18:56:39;31.67;;;19.13;;
27863;SDS011;15980;51.092;13.916;2022-08-19T19:01:45;32.38;;;21.15;;
27863;SDS011;15980;51.092;13.916;2022-08-19T19:06:50;24.55;;;17.85;;
27863;SDS011;15980;51.092;13.916;2022-08-19T19:11:55;24.80;;;17.88;;
27863;SDS011;15980;51.092;13.916;2022-08-19T19:17:02;26.85;;;18.30;;
27863;SDS011;15980;51.092;13.916;2022-08-19T19:22:06;32.20;;;22.00;;
27863;SDS011;15980;51.092;13.916;2022-08-19T19:27:13;34.75;;;23.08;;
27863;SDS011;15980;51.092;13.916;2022-08-19T19:32:19;33.85;;;22.90;;
27863;SDS011;15980;51.092;13.916;2022-08-19T19:37:24;27.67;;;19.83;;
27863;SDS011;15980;51.092;13.916;2022-08-19T19:42:28;28.40;;;19.73;;
27863;SDS011;15980;51.092;13.916;2022-08-19T19:47:31;36.53;;;22.92;;
27863;SDS011;15980;51.092;13.916;2022-08-19T19:52:34;32.85;;;22.58;;
27863;SDS011;15980;51.092;13.916;2022-08-19T19:57:38;35.50;;;23.70;;
27863;SDS011;15980;51.092;13.916;2022-08-19T20:02:41;31.40;;;21.40;;
27863;SDS011;15980;51.092;13.916;2022-08-19T20:07:48;31.30;;;21.60;;
27863;SDS011;15980;51.092;13.916;2022-08-19T20:13:11;31.90;;;21.58;;
27863;SDS011;15980;51.092;13.916;2022-08-19T20:18:15;31.25;;;20.58;;
27863;SDS011;15980;51.092;13.916;2022-08-19T20:23:19;24.95;;;17.67;;
27863;SDS011;15980;51.092;13.916;2022-08-19T20:28:25;31.48;;;21.13;;
27863;SDS011;15980;51.092;13.916;2022-08-19T20:33:29;45.13;;;24.48;;
27863;SDS011;15980;51.092;13.916;2022-08-19T20:38:32;36.72;;;23.63;;
27863;SDS011;15980;51.092;13.916;2022-08-19T20:43:36;36.10;;;22.55;;
27863;SDS011;15980;51.092;13.916;2022-08-19T20:48:40;43.30;;;27.80;;
27863;SDS011;15980;51.092;13.916;2022-08-19T20:53:43;41.83;;;24.92;;
27863;SDS011;15980;51.092;13.916;2022-08-19T20:58:47;33.97;;;22.08;;
27863;SDS011;15980;51.092;13.916;2022-08-19T21:03:53;44.42;;;26.50;;
27863;SDS011;15980;51.092;13.916;2022-08-19T21:08:55;33.83;;;21.67;;
27863;SDS011;15980;51.092;13.916;2022-08-19T21:14:00;34.28;;;21.88;;
27863;SDS011;15980;51.092;13.916;2022-08-19T21:19:03;52.03;;;30.98;;
27863;SDS011;15980;51.092;13.916;2022-08-19T21:24:06;44.47;;;27.02;;
27863;SDS011;15980;51.092;13.916;2022-08-19T21:29:11;46.22;;;27.42;;
27863;SDS011;15980;51.092;13.916;2022-08-19T21:34:14;35.13;;;22.98;;
27863;SDS011;15980;51.092;13.916;2022-08-19T21:39:17;39.90;;;24.98;;
27863;SDS011;15980;51.092;13.916;2022-08-19T21:44:21;33.78;;;21.55;;
27863;SDS011;15980;51.092;13.916;2022-08-19T21:49:24;47.15;;;27.25;;
27863;SDS011;15980;51.092;13.916;2022-08-19T21:54:29;42.80;;;27.08;;
27863;SDS011;15980;51.092;13.916;2022-08-19T21:59:33;42.35;;;25.52;;
27863;SDS011;15980;51.092;13.916;2022-08-19T22:04:36;32.97;;;20.90;;
27863;SDS011;15980;51.092;13.916;2022-08-19T22:09:41;27.02;;;18.58;;
27863;SDS011;15980;51.092;13.916;2022-08-19T22:14:47;28.73;;;19.27;;
27863;SDS011;15980;51.092;13.916;2022-08-19T22:19:51;38.10;;;22.35;;
27863;SDS011;15980;51.092;13.916;2022-08-19T22:24:59;36.03;;;23.67;;
27863;SDS011;15980;51.092;13.916;2022-08-19T22:30:05;38.88;;;23.48;;
27863;SDS011;15980;51.092;13.916;2022-08-19T22:35:11;34.47;;;21.25;;
27863;SDS011;15980;51.092;13.916;2022-08-19T22:40:14;31.23;;;20.40;;
27863;SDS011;15980;51.092;13.916;2022-08-19T22:45:18;39.72;;;23.02;;
27863;SDS011;15980;51.092;13.916;2022-08-19T22:50:22;39.10;;;22.73;;
27863;SDS011;15980;51.092;13.916;2022-08-19T22:55:26;43.25;;;25.00;;
27863;SDS011;15980;51.092;13.916;2022-08-19T23:00:31;37.15;;;24.17;;
27863;SDS011;15980;51.092;13.916;2022-08-19T23:05:34;39.08;;;23.92;;
27863;SDS011;15980;51.092;13.916;2022-08-19T23:10:37;45.17;;;25.35;;
27863;SDS011;15980;51.092;13.916;2022-08-19T23:15:43;41.53;;;24.42;;
27863;SDS011;15980;51.092;13.916;2022-08-19T23:20:46;40.53;;;25.13;;
27863;SDS011;15980;51.092;13.916;2022-08-19T23:25:50;46.92;;;25.30;;
27863;SDS011;15980;51.092;13.916;2022-08-19T23:30:55;50.88;;;27.10;;
27863;SDS011;15980;51.092;13.916;2022-08-19T23:35:59;40.78;;;24.10;;
27863;SDS011;15980;51.092;13.916;2022-08-19T23:41:04;45.25;;;25.73;;
27863;SDS011;15980;51.092;13.916;2022-08-19T23:46:11;41.30;;;25.52;;
27863;SDS011;15980;51.092;13.916;2022-08-19T23:51:19;45.75;;;25.55;;
27863;SDS011;15980;51.092;13.916;2022-08-19T23:56:22;48.83;;;27.20;;
